Time;durP1;ratioP1;P1;durP2;ratioP2;P2;SDS_P1;SDS_P2;PMS_P1;PMS_P2;Temp;Humidity;BMP_temperature;BMP_pressure;BME280_temperature;BME280_humidity;BME280_pressure;Samples;Min_cycle;Max_cycle;Signal;HPM_P1;HPM_P2
2022/10/04 00:02:48;;;;;;;1.60;1.50;;;;;;;12.46;89.53;102230.69;6250290;28;20689;-75
2022/10/04 00:06:16;;;;;;;4.33;1.47;;;;;;;12.54;89.08;102225.56;6255384;28;20224;-75
2022/10/04 00:09:46;;;;;;;2.53;1.30;;;;;;;12.43;89.36;102223.66;6250858;28;20232;-75
2022/10/04 00:13:16;;;;;;;2.53;1.20;;;;;;;12.45;89.18;102224.44;6256652;28;20254;-73
2022/10/04 00:16:40;;;;;;;5.90;1.80;;;;;;;12.50;89.33;102224.94;6246293;28;20235;-73
2022/10/04 00:20:01;;;;;;;2.37;1.20;;;;;;;12.43;89.03;102222.81;6248677;28;20240;-74
2022/10/04 00:23:41;;;;;;;4.60;3.33;;;;;;;12.35;89.52;102230.66;6250590;28;20235;-74
2022/10/04 00:27:21;;;;;;;2.20;1.53;;;;;;;12.30;89.16;102227.41;6241804;28;20228;-75
2022/10/04 00:30:42;;;;;;;2.20;1.20;;;;;;;12.37;89.06;102226.00;6252449;28;20227;-73
2022/10/04 00:34:36;;;;;;;3.43;1.53;;;;;;;12.36;88.69;102226.94;6257674;28;20259;-74
2022/10/04 00:37:59;;;;;;;3.07;1.77;;;;;;;12.25;89.57;102222.34;6252535;28;20273;-74
2022/10/04 00:41:21;;;;;;;3.33;1.83;;;;;;;12.31;89.08;102221.88;6252575;28;20510;-73
2022/10/04 00:44:49;;;;;;;5.63;1.60;;;;;;;12.42;88.47;102221.06;6253570;28;20327;-74
2022/10/04 00:48:39;;;;;;;4.37;1.83;;;;;;;12.43;87.91;102214.72;6253361;28;20242;-74
2022/10/04 00:52:05;;;;;;;2.63;1.93;;;;;;;12.28;88.05;102208.59;6244694;28;20224;-74
2022/10/04 00:55:35;;;;;;;2.30;1.50;;;;;;;12.20;89.24;102202.91;6250215;28;20223;-73
2022/10/04 00:59:24;;;;;;;1.43;1.30;;;;;;;12.17;89.00;102200.41;6248457;28;20219;-74
2022/10/04 01:02:53;;;;;;;2.60;1.97;;;;;;;12.26;89.12;102196.16;6253101;28;20616;-74
2022/10/04 01:06:15;;;;;;;3.90;2.13;;;;;;;12.27;88.81;102200.59;6251827;28;20227;-74
2022/10/04 01:09:41;;;;;;;3.23;1.73;;;;;;;12.23;88.70;102197.25;6248342;28;20240;-74
2022/10/04 01:13:09;;;;;;;7.27;2.20;;;;;;;12.27;88.50;102187.06;6246539;28;20229;-74
2022/10/04 01:16:33;;;;;;;3.30;2.13;;;;;;;12.39;87.89;102178.91;6250289;28;20338;-74
2022/10/04 01:19:56;;;;;;;6.17;2.80;;;;;;;12.41;87.92;102178.81;6251115;28;20250;-74
2022/10/04 01:23:54;;;;;;;6.33;2.37;;;;;;;12.42;87.43;102183.22;6255177;28;20224;-74
2022/10/04 01:27:42;;;;;;;2.90;2.27;;;;;;;12.33;87.97;102168.53;6174409;28;20260;-74
2022/10/04 01:31:03;;;;;;;5.83;2.30;;;;;;;12.36;87.87;102172.88;6197256;28;20227;-74
2022/10/04 01:34:26;;;;;;;2.70;2.20;;;;;;;12.31;87.64;102186.72;6255801;28;20251;-74
2022/10/04 01:37:47;;;;;;;5.93;3.30;;;;;;;12.34;87.74;102170.28;6246377;28;20327;-74
2022/10/04 01:41:14;;;;;;;6.80;4.10;;;;;;;12.23;87.66;102169.34;6244348;28;20236;-74
2022/10/04 01:44:40;;;;;;;2.33;1.77;;;;;;;12.28;88.17;102173.47;6249291;28;20240;-74
2022/10/04 01:48:05;;;;;;;4.03;2.17;;;;;;;12.36;87.62;102162.91;6252895;28;20228;-74
2022/10/04 01:51:32;;;;;;;2.77;1.60;;;;;;;12.38;87.62;102162.78;6255100;28;20231;-74
2022/10/04 01:55:01;;;;;;;2.97;1.87;;;;;;;12.28;87.79;102148.25;6250025;28;20660;-75
2022/10/04 01:58:28;;;;;;;6.07;2.53;;;;;;;12.21;87.89;102155.09;6250352;28;20228;-74
2022/10/04 02:01:55;;;;;;;2.93;2.30;;;;;;;12.29;87.88;102149.97;6258250;28;20220;-75
2022/10/04 02:05:20;;;;;;;3.90;2.13;;;;;;;12.38;87.27;102139.31;6261470;28;20307;-76
2022/10/04 02:08:48;;;;;;;4.50;1.77;;;;;;;12.40;86.96;102141.91;6252312;28;20248;-75
2022/10/04 02:12:10;;;;;;;3.67;1.70;;;;;;;12.37;87.12;102144.84;6245410;28;20259;-74
2022/10/04 02:15:38;;;;;;;3.97;3.13;;;;;;;12.38;87.07;102138.44;6244743;28;20336;-75
2022/10/04 02:18:59;;;;;;;2.57;2.13;;;;;;;12.30;87.56;102143.59;6244319;28;20248;-74
2022/10/04 02:22:22;;;;;;;1.80;1.70;;;;;;;12.18;87.45;102145.38;6245602;28;20236;-74
2022/10/04 02:25:44;;;;;;;3.43;2.27;;;;;;;12.13;88.19;102136.75;6243909;28;20676;-75
2022/10/04 02:29:05;;;;;;;4.23;3.40;;;;;;;12.28;87.67;102137.44;6238401;28;20244;-75
2022/10/04 02:36:15;;;;;;;12.47;1.93;;;;;;;12.31;87.53;102129.94;6222352;28;20687;-74
2022/10/04 02:39:39;;;;;;;3.40;2.40;;;;;;;12.20;87.29;102132.63;6236985;28;20236;-73
2022/10/04 02:43:04;;;;;;;5.07;1.93;;;;;;;12.27;87.85;102123.03;6246051;28;20231;-74
2022/10/04 02:46:28;;;;;;;11.47;2.27;;;;;;;12.19;87.86;102111.97;6246228;28;20240;-75
2022/10/04 02:49:53;;;;;;;2.83;1.40;;;;;;;12.17;87.20;102099.53;6241982;28;20235;-75
2022/10/04 02:53:25;;;;;;;2.23;1.60;;;;;;;12.32;87.18;102099.22;6246856;28;20823;-74
2022/10/04 02:56:52;;;;;;;1.70;1.60;;;;;;;12.19;87.23;102082.22;6244166;28;20243;-75
2022/10/04 03:00:18;;;;;;;2.10;1.90;;;;;;;12.34;86.67;102108.09;6244126;28;20227;-75
2022/10/04 03:03:46;;;;;;;3.17;1.47;;;;;;;12.27;87.11;102108.66;6256381;28;20580;-75
2022/10/04 03:07:09;;;;;;;2.70;1.50;;;;;;;12.17;87.73;102103.09;6255572;28;20257;-75
2022/10/04 03:10:30;;;;;;;3.07;1.50;;;;;;;12.19;87.38;102097.56;6251920;28;20350;-74
2022/10/04 03:13:54;;;;;;;5.53;1.53;;;;;;;12.26;87.27;102104.25;6254123;28;20337;-75
2022/10/04 03:17:16;;;;;;;2.20;1.73;;;;;;;12.41;86.58;102105.78;6256283;28;20314;-75
2022/10/04 03:20:38;;;;;;;1.67;1.13;;;;;;;12.43;86.88;102098.41;6256224;28;20232;-75
2022/10/04 03:24:03;;;;;;;11.83;2.43;;;;;;;12.39;86.28;102086.94;6259243;28;20232;-76
2022/10/04 03:27:28;;;;;;;3.97;1.70;;;;;;;12.52;85.78;102085.03;6251569;28;20224;-74
2022/10/04 03:30:50;;;;;;;2.50;2.30;;;;;;;12.49;86.41;102084.41;6253565;28;20766;-75
2022/10/04 03:34:15;;;;;;;3.97;2.10;;;;;;;12.57;86.04;102092.78;6257501;28;22148;-75
2022/10/04 03:37:37;;;;;;;3.23;2.00;;;;;;;12.43;86.52;102093.84;6259501;28;20232;-76
2022/10/04 03:41:01;;;;;;;2.50;1.83;;;;;;;12.50;86.13;102089.69;6254130;28;20292;-75
2022/10/04 03:44:23;;;;;;;2.10;1.63;;;;;;;12.58;85.74;102092.66;6255347;28;20229;-74
2022/10/04 03:47:47;;;;;;;5.20;2.37;;;;;;;12.41;85.97;102089.56;6259283;28;20227;-75
2022/10/04 03:51:15;;;;;;;7.03;2.07;;;;;;;12.39;85.98;102086.09;6248130;28;20221;-75
2022/10/04 03:54:36;;;;;;;4.50;2.40;;;;;;;12.49;85.67;102087.13;6257617;28;20793;-75
2022/10/04 03:57:59;;;;;;;2.63;1.37;;;;;;;12.47;86.08;102083.66;6252615;28;20228;-75
2022/10/04 04:01:37;;;;;;;2.53;1.90;;;;;;;12.38;86.53;102082.53;6251549;28;20608;-75
2022/10/04 04:05:09;;;;;;;4.40;2.83;;;;;;;12.32;86.57;102083.00;6261729;28;20223;-75
2022/10/04 04:08:34;;;;;;;2.73;2.13;;;;;;;12.30;87.22;102087.66;6254750;28;20224;-75
2022/10/04 04:11:57;;;;;;;2.10;1.60;;;;;;;12.25;86.82;102087.16;6225693;28;20224;-75
2022/10/04 04:15:20;;;;;;;3.77;1.83;;;;;;;12.27;87.04;102087.91;6231151;28;20228;-75
2022/10/04 04:18:44;;;;;;;1.67;1.57;;;;;;;12.31;86.41;102083.97;6225948;28;20227;-77
2022/10/04 04:22:04;;;;;;;2.80;1.50;;;;;;;12.36;86.82;102089.91;6258502;28;20231;-74
2022/10/04 04:25:28;;;;;;;4.70;2.40;;;;;;;12.30;87.03;102084.09;6251975;28;20223;-75
2022/10/04 04:28:51;;;;;;;9.70;2.17;;;;;;;12.26;87.15;102086.19;6252355;28;20227;-74
2022/10/04 04:32:18;;;;;;;4.90;2.33;;;;;;;12.27;87.44;102096.00;6253274;28;20227;-75
2022/10/04 04:35:39;;;;;;;4.57;1.97;;;;;;;12.35;87.25;102084.63;6253255;28;20278;-75
2022/10/04 04:42:52;;;;;;;3.53;1.50;;;;;;;12.47;86.70;102078.25;6251187;28;20228;-75
2022/10/04 04:46:13;;;;;;;2.53;2.03;;;;;;;12.36;86.91;102076.38;6251789;28;20617;-75
2022/10/04 04:49:39;;;;;;;3.50;1.43;;;;;;;12.29;86.94;102075.13;6250236;28;20227;-76
2022/10/04 04:53:06;;;;;;;2.00;1.90;;;;;;;12.30;87.66;102082.25;6253558;28;20263;-76
2022/10/04 04:56:29;;;;;;;2.43;1.97;;;;;;;12.32;87.50;102064.09;6251246;28;20846;-75
2022/10/04 04:59:55;;;;;;;5.03;2.07;;;;;;;12.29;87.65;102069.72;6254272;28;20228;-74
2022/10/04 05:03:18;;;;;;;2.57;2.30;;;;;;;12.34;87.39;102063.94;6230663;28;20498;-75
2022/10/04 05:06:43;;;;;;;2.80;1.73;;;;;;;12.25;88.54;102061.94;6230707;28;20241;-76
2022/10/04 05:10:20;;;;;;;3.13;2.80;;;;;;;12.34;87.62;102061.25;6247778;28;20231;-75
2022/10/04 05:13:47;;;;;;;4.27;2.23;;;;;;;12.36;87.82;102056.59;6228815;28;20236;-75
2022/10/04 05:17:08;;;;;;;2.77;1.83;;;;;;;12.38;88.07;102065.44;6237121;28;20232;-72
2022/10/04 05:20:33;;;;;;;5.23;1.70;;;;;;;12.38;88.08;102060.03;6241210;28;20223;-73
2022/10/04 05:23:56;;;;;;;5.40;4.30;;;;;;;12.45;88.24;102067.56;6255231;28;20227;-74
2022/10/04 05:27:27;;;;;;;8.57;5.87;;;;;;;12.46;87.57;102061.16;6264748;28;20235;-74
2022/10/04 05:31:03;;;;;;;3.77;2.93;;;;;;;12.49;86.76;102060.06;6258122;28;20223;-74
2022/10/04 05:34:26;;;;;;;2.83;1.60;;;;;;;12.49;87.26;102055.53;6253656;28;20741;-75
2022/10/04 05:37:57;;;;;;;5.97;2.20;;;;;;;12.41;87.33;102057.94;6261129;28;20224;-74
2022/10/04 05:41:27;;;;;;;6.27;2.23;;;;;;;12.38;87.99;102060.91;6248475;28;20228;-74
2022/10/04 05:44:51;;;;;;;4.30;2.83;;;;;;;12.48;87.97;102056.50;6262614;28;20239;-74
2022/10/04 05:48:13;;;;;;;3.03;1.77;;;;;;;12.55;87.12;102057.75;6255180;28;20247;-75
2022/10/04 05:51:48;;;;;;;5.40;1.77;;;;;;;12.53;87.43;102061.56;6260687;28;20231;-74
2022/10/04 05:55:16;;;;;;;2.93;1.83;;;;;;;12.65;86.30;102066.88;6253260;28;21042;-75
2022/10/04 05:58:55;;;;;;;4.33;2.10;;;;;;;12.65;86.45;102072.28;6262478;28;20247;-75
2022/10/04 06:02:30;;;;;;;5.80;2.60;;;;;;;12.72;86.84;102067.25;6236666;28;20228;-75
2022/10/04 06:05:54;;;;;;;4.00;3.13;;;;;;;12.74;86.54;102068.84;6249016;28;20228;-75
2022/10/04 06:09:32;;;;;;;4.23;2.83;;;;;;;12.65;86.49;102072.28;6257042;28;20227;-74
2022/10/04 06:12:59;;;;;;;6.90;2.80;;;;;;;12.61;86.59;102068.09;6251925;28;20227;-74
2022/10/04 06:16:31;;;;;;;4.23;2.77;;;;;;;12.57;86.44;102066.59;6252031;28;20231;-75
2022/10/04 06:20:17;;;;;;;5.63;3.40;;;;;;;12.62;87.37;102067.09;6243176;28;20236;-73
2022/10/04 06:23:45;;;;;;;2.80;2.10;;;;;;;12.61;87.02;102070.78;6259052;28;20235;-74
2022/10/04 06:27:12;;;;;;;3.60;1.93;;;;;;;12.37;87.58;102063.72;6258856;28;20224;-74
2022/10/04 06:30:54;;;;;;;4.03;2.17;;;;;;;12.36;88.13;102062.00;6248624;28;20224;-74
2022/10/04 06:34:34;;;;;;;2.90;2.70;;;;;;;12.39;87.55;102059.91;6255110;28;20236;-75
2022/10/04 06:38:15;;;;;;;5.97;3.53;;;;;;;12.48;87.33;102058.31;6257960;28;20625;-75
2022/10/04 06:41:46;;;;;;;3.27;1.97;;;;;;;12.45;86.57;102061.28;6254268;28;20523;-73
2022/10/04 06:45:28;;;;;;;6.40;3.27;;;;;;;12.52;86.82;102059.81;6257991;28;20247;-75
2022/10/04 06:49:13;;;;;;;7.90;3.23;;;;;;;12.64;86.09;102054.31;6257633;28;20239;-75
2022/10/04 06:52:48;;;;;;;4.73;2.97;;;;;;;12.70;85.38;102053.81;6259012;28;20227;-75
2022/10/04 06:56:39;;;;;;;8.53;2.97;;;;;;;12.76;85.82;102050.66;6260850;28;20228;-75
2022/10/04 07:00:13;;;;;;;4.60;3.57;;;;;;;12.86;84.87;102053.47;6257784;28;20232;-73
2022/10/04 07:03:41;;;;;;;7.23;2.27;;;;;;;13.05;84.29;102058.31;6254789;28;20621;-74
2022/10/04 07:07:25;;;;;;;9.37;3.10;;;;;;;13.09;84.08;102057.94;6258619;28;20252;-75
2022/10/04 07:10:54;;;;;;;5.03;3.03;;;;;;;13.09;84.06;102065.22;6261666;28;20232;-74
2022/10/04 07:14:19;;;;;;;2.70;2.50;;;;;;;13.29;83.05;102069.88;6253436;28;23112;-75
2022/10/04 07:17:43;;;;;;;2.67;2.20;;;;;;;13.48;82.37;102073.66;6256600;28;20239;-74
2022/10/04 07:21:09;;;;;;;10.83;3.57;;;;;;;13.44;82.84;102071.31;6259180;28;20232;-78
2022/10/04 07:24:53;;;;;;;4.30;3.97;;;;;;;13.60;82.21;102069.09;6258979;28;20622;-75
2022/10/04 07:32:08;;;;;;;10.87;3.07;;;;;;;13.51;82.46;102072.56;6255599;28;20326;-75
2022/10/04 07:35:35;;;;;;;3.50;3.03;;;;;;;13.44;82.60;102082.16;6259844;28;20608;-74
2022/10/04 07:39:00;;;;;;;4.63;3.70;;;;;;;13.41;82.79;102079.72;6258941;28;20228;-75
2022/10/04 07:42:27;;;;;;;5.63;3.00;;;;;;;13.69;81.95;102083.72;6260631;28;20232;-74
2022/10/04 07:45:50;;;;;;;4.50;2.30;;;;;;;13.56;82.03;102076.59;6260208;28;20236;-75
2022/10/04 07:49:14;;;;;;;3.83;3.07;;;;;;;13.49;82.53;102077.25;6251877;28;20338;-75
2022/10/04 07:52:49;;;;;;;6.20;3.47;;;;;;;13.73;81.84;102086.06;6259334;28;20223;-73
2022/10/04 07:56:15;;;;;;;2.60;2.40;;;;;;;13.60;82.15;102088.91;6258993;28;20235;-74
2022/10/04 07:59:45;;;;;;;7.67;5.37;;;;;;;13.48;82.46;102089.06;6257781;28;20235;-74
2022/10/04 08:03:20;;;;;;;5.93;4.10;;;;;;;13.65;82.69;102080.41;6259052;28;20228;-77
2022/10/04 08:06:55;;;;;;;11.73;4.50;;;;;;;13.99;82.98;102073.06;6252258;28;20228;-77
2022/10/04 08:10:25;;;;;;;4.77;2.80;;;;;;;14.01;81.03;102074.66;6249506;28;20232;-75
2022/10/04 08:13:52;;;;;;;8.00;3.13;;;;;;;13.94;81.53;102070.72;6250032;28;20253;-77
2022/10/04 08:17:27;;;;;;;5.23;2.77;;;;;;;14.09;81.08;102076.69;6244456;28;20244;-75
2022/10/04 08:20:56;;;;;;;3.77;2.83;;;;;;;14.16;80.71;102076.03;6251352;28;20236;-75
2022/10/04 08:24:25;;;;;;;11.30;4.70;;;;;;;14.16;80.65;102073.31;6259551;28;20223;-76
2022/10/04 08:31:44;;;;;;;10.37;5.77;;;;;;;14.67;79.05;102072.59;6252081;28;20229;-76
2022/10/04 08:35:28;;;;;;;5.77;3.43;;;;;;;14.85;78.33;102074.56;6259776;28;20235;-75
2022/10/04 08:38:56;;;;;;;5.47;3.27;;;;;;;15.37;76.41;102069.97;6253891;28;20279;-76
2022/10/04 08:43:03;;;;;;;9.10;3.13;;;;;;;15.66;76.75;102074.53;6254973;28;20228;-75
2022/10/04 08:46:50;;;;;;;4.43;3.20;;;;;;;15.23;75.77;102074.78;6224721;28;21910;-76
2022/10/04 08:50:39;;;;;;;5.90;3.40;;;;;;;15.26;75.51;102073.63;6253288;28;20220;-76
2022/10/04 08:54:48;;;;;;;5.33;3.20;;;;;;;15.27;75.73;102079.94;6256231;28;20756;-76
2022/10/04 08:58:40;;;;;;;5.77;2.77;;;;;;;15.31;74.82;102073.22;6238602;28;20231;-76
2022/10/04 09:02:32;;;;;;;7.33;5.30;;;;;;;14.90;75.88;102080.47;6252154;28;20231;-74
2022/10/04 09:06:00;;;;;;;3.07;2.60;;;;;;;14.95;75.88;102080.06;6233430;28;20240;-72
2022/10/04 09:09:49;;;;;;;6.87;3.30;;;;;;;14.92;76.18;102074.91;6253731;28;20228;-73
2022/10/04 09:13:32;;;;;;;3.27;2.97;;;;;;;14.90;75.75;102083.19;6256498;28;20213;-72
2022/10/04 09:17:06;;;;;;;2.70;2.37;;;;;;;14.71;75.66;102076.78;6246558;28;20247;-74
2022/10/04 09:20:43;;;;;;;10.67;3.73;;;;;;;14.97;75.31;102078.09;6248754;28;20365;-75
2022/10/04 09:24:42;;;;;;;3.03;2.70;;;;;;;15.31;73.44;102065.91;6254004;28;20240;-74
2022/10/04 09:28:19;;;;;;;4.50;3.00;;;;;;;15.02;73.85;102067.66;6250755;28;20255;-74
2022/10/04 09:32:17;;;;;;;5.73;3.13;;;;;;;14.82;75.10;102071.28;6255437;28;20223;-74
2022/10/04 09:36:15;;;;;;;8.90;3.50;;;;;;;15.19;73.86;102046.16;6256634;28;20838;-74
2022/10/04 09:39:59;;;;;;;6.80;3.83;;;;;;;15.13;74.36;102051.28;6254778;28;20789;-75
2022/10/04 09:43:57;;;;;;;4.33;2.60;;;;;;;15.13;74.34;102048.56;6253923;28;20223;-74
2022/10/04 09:47:37;;;;;;;4.83;3.67;;;;;;;15.20;73.85;102056.03;6252477;28;20223;-74
2022/10/04 09:51:29;;;;;;;9.37;2.60;;;;;;;15.26;74.57;102051.03;6253169;28;20231;-76
2022/10/04 09:55:04;;;;;;;4.10;3.80;;;;;;;15.28;73.66;102058.06;6253707;28;20508;-75
2022/10/04 09:58:51;;;;;;;4.57;2.53;;;;;;;15.28;73.55;102058.06;6258198;28;20220;-75
2022/10/04 10:02:44;;;;;;;10.70;3.23;;;;;;;15.33;73.82;102054.94;6249531;28;20219;-75
2022/10/04 10:06:22;;;;;;;4.43;2.80;;;;;;;15.29;73.71;102054.31;6253070;28;20228;-75
2022/10/04 10:13:53;;;;;;;4.13;2.60;;;;;;;15.53;72.94;102054.00;6261996;28;20263;-76
2022/10/04 10:17:24;;;;;;;5.13;3.13;;;;;;;15.64;72.48;102059.34;6261197;28;20232;-75
2022/10/04 10:21:12;;;;;;;3.17;2.77;;;;;;;15.60;72.77;102058.78;6257241;28;20733;-74
2022/10/04 10:25:00;;;;;;;3.77;2.30;;;;;;;16.03;71.67;102058.38;6247950;28;20259;-75
2022/10/04 10:29:09;;;;;;;4.30;2.50;;;;;;;17.66;66.58;102053.41;6235662;28;20236;-75
2022/10/04 10:33:03;;;;;;;7.30;3.00;;;;;;;21.02;55.04;102031.53;6158179;28;20249;-75
2022/10/04 10:36:37;;;;;;;6.72;3.45;;;;;;;21.28;52.96;102032.13;6208656;28;20286;-74
2022/10/04 10:40:25;;;;;;;4.03;3.03;;;;;;;24.64;44.98;102021.50;6257579;28;20743;-75
2022/10/04 10:44:03;;;;;;;6.28;2.40;;;;;;;24.70;43.19;102017.94;6261842;28;20228;-74
2022/10/04 10:47:36;;;;;;;3.47;2.85;;;;;;;24.24;44.50;102020.28;6261571;28;20267;-74
2022/10/04 10:51:09;;;;;;;6.35;3.03;;;;;;;23.02;47.55;102023.81;6259525;28;20232;-74
2022/10/04 10:54:58;;;;;;;4.72;2.60;;;;;;;27.40;38.25;102010.94;6259229;28;20235;-74
2022/10/04 10:59:00;;;;;;;8.43;2.95;;;;;;;27.80;37.06;102018.00;6257293;28;20236;-75
2022/10/04 11:02:49;;;;;;;3.65;1.92;;;;;;;26.49;39.33;102010.00;6258775;28;20219;-75
2022/10/04 11:06:16;;;;;;;4.05;2.65;;;;;;;24.20;45.22;102011.53;6259588;28;20224;-73
2022/10/04 11:10:04;;;;;;;6.10;2.33;;;;;;;24.35;44.10;102005.97;6259814;28;20220;-74
2022/10/04 11:14:11;;;;;;;3.92;2.60;;;;;;;21.18;52.51;102024.13;6247816;28;20223;-74
2022/10/04 11:18:08;;;;;;;4.45;2.78;;;;;;;21.02;52.67;102010.47;6256916;28;20610;-75
2022/10/04 11:22:06;;;;;;;5.63;2.42;;;;;;;20.90;54.20;102006.38;6239356;28;20455;-74
2022/10/04 11:25:50;;;;;;;3.45;2.72;;;;;;;22.16;51.00;102001.44;6240752;28;20323;-75
2022/10/04 11:29:26;;;;;;;4.25;2.50;;;;;;;21.92;51.10;102011.75;6244173;28;20232;-74
2022/10/04 11:33:16;;;;;;;3.00;2.50;;;;;;;20.19;55.70;102008.13;6257388;28;20243;-74
2022/10/04 11:36:50;;;;;;;5.97;2.40;;;;;;;18.23;61.35;102011.16;6258043;28;20648;-74
2022/10/04 11:40:28;;;;;;;4.85;2.67;;;;;;;21.02;54.68;101998.59;6254476;28;20239;-75
2022/10/04 11:44:17;;;;;;;2.80;2.00;;;;;;;20.73;53.44;101999.22;6258542;28;20240;-76
2022/10/04 11:47:54;;;;;;;5.00;2.65;;;;;;;20.60;54.31;101988.78;6251652;28;20228;-75
2022/10/04 11:51:43;;;;;;;4.28;2.55;;;;;;;22.86;46.51;101968.16;6254677;28;20248;-75
2022/10/04 11:55:26;;;;;;;3.50;1.50;;;;;;;23.00;45.79;101954.38;6260971;28;20610;-74
2022/10/04 11:59:11;;;;;;;5.78;2.25;;;;;;;22.08;48.25;101957.56;6257375;28;20597;-75
2022/10/04 12:03:04;;;;;;;6.18;2.38;;;;;;;25.22;40.39;101958.41;6254586;28;20220;-74
2022/10/04 12:06:43;;;;;;;3.45;1.92;;;;;;;21.15;50.19;101958.63;6256232;28;20286;-74
2022/10/04 12:10:19;;;;;;;4.18;2.03;;;;;;;22.95;45.49;101953.22;6260050;28;20322;-76
2022/10/04 12:13:55;;;;;;;3.17;1.77;;;;;;;21.00;50.23;101960.41;6259114;28;20228;-75
2022/10/04 12:17:37;;;;;;;7.82;1.70;;;;;;;24.13;42.23;101933.47;6259277;28;20236;-74
2022/10/04 12:21:39;;;;;;;4.53;1.23;;;;;;;20.28;51.53;101945.00;6255273;28;20789;-75
2022/10/04 12:25:27;;;;;;;2.35;1.08;;;;;;;22.84;45.93;101929.81;6258399;28;20231;-73
2022/10/04 12:29:04;;;;;;;4.70;2.28;;;;;;;20.38;50.75;101937.44;6260073;28;20612;-74
2022/10/04 12:32:30;;;;;;;4.65;2.05;;;;;;;19.47;54.26;101929.53;6252481;28;20231;-75
2022/10/04 12:36:00;;;;;;;3.78;1.70;;;;;;;18.95;55.54;101924.22;6257117;28;20847;-74
2022/10/04 12:39:39;;;;;;;4.82;2.17;;;;;;;19.39;54.35;101911.22;6260341;28;20227;-77
2022/10/04 12:43:09;;;;;;;7.63;3.28;;;;;;;20.79;50.77;101913.53;6259306;28;20227;-74
2022/10/04 12:46:39;;;;;;;3.70;2.25;;;;;;;21.69;46.69;101903.78;6252535;28;20251;-75
2022/10/04 12:50:11;;;;;;;6.57;1.70;;;;;;;21.36;47.81;101906.75;6252742;28;20505;-74
2022/10/04 12:53:47;;;;;;;3.08;1.70;;;;;;;24.03;42.45;101893.50;6254630;28;20564;-76
2022/10/04 12:57:44;;;;;;;5.00;1.88;;;;;;;21.69;46.68;101898.28;6255805;28;20590;-76
2022/10/04 13:01:16;;;;;;;3.22;1.40;;;;;;;21.22;47.78;101888.31;6251712;28;20597;-74
2022/10/04 13:04:41;;;;;;;6.07;1.50;;;;;;;19.79;51.80;101894.00;6255386;28;20339;-75
2022/10/04 13:08:13;;;;;;;2.08;1.30;;;;;;;19.69;52.14;101898.78;6252734;28;20342;-77
2022/10/04 13:11:53;;;;;;;1.83;1.48;;;;;;;21.83;47.28;101881.03;6258800;28;20251;-76
2022/10/04 13:15:29;;;;;;;9.15;2.22;;;;;;;21.49;47.57;101893.28;6256321;28;21299;-76
2022/10/04 13:19:00;;;;;;;2.47;1.83;;;;;;;22.56;45.37;101900.41;6254483;28;20235;-75
2022/10/04 13:22:41;;;;;;;3.58;1.70;;;;;;;20.65;48.58;101895.91;6251500;28;20223;-75
2022/10/04 13:26:21;;;;;;;2.00;1.50;;;;;;;19.86;51.35;101903.22;6256240;28;20239;-74
2022/10/04 13:29:54;;;;;;;5.43;1.75;;;;;;;21.04;48.41;101893.22;6255628;28;20318;-74
2022/10/04 13:33:25;;;;;;;3.50;1.52;;;;;;;22.05;45.65;101880.16;6258118;28;20220;-73
2022/10/04 13:37:00;;;;;;;5.80;1.90;;;;;;;21.75;45.55;101887.44;6258248;28;20318;-73
2022/10/04 13:40:31;;;;;;;6.20;3.72;;;;;;;22.74;44.23;101868.75;6257327;28;20259;-78
2022/10/04 13:44:29;;;;;;;3.42;1.58;;;;;;;24.95;39.40;101854.47;6259902;28;20508;-78
2022/10/04 13:48:26;;;;;;;2.33;2.13;;;;;;;24.34;40.14;101839.72;6259688;28;20223;-78
2022/10/04 13:59:40;;;;;;;3.22;1.58;;;;;;;22.31;43.76;101824.75;6263317;28;20250;-77
2022/10/04 14:03:18;;;;;;;2.47;1.67;;;;;;;21.65;45.29;101822.84;6260170;28;20243;-75
2022/10/04 14:07:16;;;;;;;2.08;1.83;;;;;;;22.42;43.50;101829.78;6251087;28;20243;-78
2022/10/04 14:11:16;;;;;;;3.60;2.67;;;;;;;24.57;39.27;101833.91;6211633;28;20228;-76
2022/10/04 14:15:03;;;;;;;3.97;2.65;;;;;;;22.45;44.14;101829.38;6258092;28;20227;-78
2022/10/04 14:19:08;;;;;;;5.45;2.33;;;;;;;23.49;42.63;101810.59;6253841;28;20244;-77
2022/10/04 14:22:59;;;;;;;2.53;1.70;;;;;;;21.44;45.25;101818.03;6256058;28;20244;-76
2022/10/04 14:27:03;;;;;;;4.95;2.72;;;;;;;21.35;46.77;101803.53;6248499;28;20243;-74
2022/10/04 14:30:27;;;;;;;4.35;1.65;;;;;;;21.94;48.31;101793.59;6253197;28;20247;-73
2022/10/04 14:34:12;;;;;;;1.52;1.17;;;;;;;22.10;46.94;101792.53;6259598;28;20259;-76
2022/10/04 14:38:11;;;;;;;5.00;1.60;;;;;;;21.19;47.32;101794.56;6250899;28;20235;-74
2022/10/04 14:41:58;;;;;;;4.53;2.40;;;;;;;22.44;45.34;101797.47;6245130;28;20520;-75
2022/10/04 14:45:42;;;;;;;2.40;1.33;;;;;;;20.86;47.74;101798.53;6260433;28;20251;-73
2022/10/04 14:49:13;;;;;;;3.63;1.38;;;;;;;20.88;47.54;101804.69;6262833;28;20742;-74
2022/10/04 14:52:46;;;;;;;3.25;1.85;;;;;;;20.00;50.09;101804.00;6254348;28;21052;-73
2022/10/04 14:56:31;;;;;;;2.78;1.08;;;;;;;19.79;50.90;101801.81;6237149;28;20613;-73
2022/10/04 15:00:15;;;;;;;2.55;2.35;;;;;;;20.07;51.65;101810.47;6241907;28;20227;-73
2022/10/04 15:03:44;;;;;;;0.93;0.93;;;;;;;19.73;51.28;101810.69;6238777;28;20236;-77
2022/10/04 15:07:18;;;;;;;1.60;1.05;;;;;;;19.61;52.75;101806.59;6236545;28;20231;-73
2022/10/04 15:10:49;;;;;;;1.70;1.45;;;;;;;18.89;54.31;101809.25;6237801;28;20227;-75
2022/10/04 15:14:30;;;;;;;5.07;1.15;;;;;;;19.08;54.25;101795.28;6237151;28;20243;-75
2022/10/04 15:18:04;;;;;;;3.40;1.30;;;;;;;19.04;53.41;101785.72;6234891;28;20298;-73
2022/10/04 15:21:46;;;;;;;2.00;1.75;;;;;;;18.48;55.19;101791.03;6240149;28;20228;-73
2022/10/04 15:25:47;;;;;;;3.17;1.33;;;;;;;18.66;54.73;101800.81;6239976;28;20453;-71
2022/10/04 15:29:22;;;;;;;1.88;1.00;;;;;;;18.64;55.18;101786.47;6252680;28;20235;-72
2022/10/04 15:32:53;;;;;;;1.65;1.50;;;;;;;18.52;55.92;101801.47;6260328;28;20227;-73
2022/10/04 15:36:39;;;;;;;4.60;2.33;;;;;;;18.41;55.89;101807.19;6227984;28;20608;-72
2022/10/04 15:40:19;;;;;;;2.17;1.20;;;;;;;18.40;56.37;101799.16;6234843;28;20224;-72
2022/10/04 15:43:43;;;;;;;1.48;1.30;;;;;;;18.30;56.13;101794.66;6210232;28;20231;-73
2022/10/04 15:47:14;;;;;;;4.68;2.70;;;;;;;18.09;57.13;101787.91;6216765;28;20228;-73
2022/10/04 15:50:41;;;;;;;1.85;1.35;;;;;;;17.83;57.54;101782.47;6212309;28;20543;-72
2022/10/04 15:54:16;;;;;;;2.70;1.55;;;;;;;17.90;57.50;101782.69;6218482;28;21717;-73
2022/10/04 15:57:59;;;;;;;2.30;1.38;;;;;;;17.77;58.12;101777.66;6216162;28;20231;-73
2022/10/04 16:01:55;;;;;;;1.45;1.33;;;;;;;17.72;58.55;101760.06;6209469;28;20389;-71
2022/10/04 16:05:25;;;;;;;1.85;0.90;;;;;;;17.65;58.96;101756.28;6222900;28;20235;-72
2022/10/04 16:09:26;;;;;;;1.90;1.27;;;;;;;17.83;58.92;101752.47;6233692;28;20220;-73
2022/10/04 16:13:06;;;;;;;2.22;1.77;;;;;;;17.63;59.33;101750.97;6241105;28;20656;-73
2022/10/04 16:17:01;;;;;;;2.17;2.08;;;;;;;17.54;60.22;101750.03;6237007;28;20219;-74
2022/10/04 16:20:54;;;;;;;1.35;1.10;;;;;;;17.36;61.03;101765.56;6244985;28;20240;-72
2022/10/04 16:24:40;;;;;;;2.67;2.42;;;;;;;17.34;61.45;101759.41;6235373;28;20223;-73
2022/10/04 16:28:10;;;;;;;5.95;1.50;;;;;;;17.30;61.43;101762.59;6237347;28;20489;-75
2022/10/04 16:31:55;;;;;;;2.80;1.75;;;;;;;17.11;62.24;101754.59;6232750;28;20231;-73
2022/10/04 16:35:28;;;;;;;3.10;1.50;;;;;;;17.02;62.54;101748.22;6239487;28;20236;-75
2022/10/04 16:42:47;;;;;;;2.58;2.38;;;;;;;17.01;62.93;101757.44;6242185;28;20228;-74
2022/10/04 16:46:22;;;;;;;2.60;2.03;;;;;;;17.05;62.73;101753.38;6257010;28;20228;-74
2022/10/04 16:49:50;;;;;;;1.65;1.50;;;;;;;16.98;63.07;101762.34;6254066;28;20602;-74
2022/10/04 16:53:30;;;;;;;4.57;3.10;;;;;;;16.87;63.16;101757.13;6258806;28;20224;-74
2022/10/04 16:57:14;;;;;;;2.43;2.23;;;;;;;16.71;63.69;101746.91;6251116;28;20230;-75
2022/10/04 17:00:37;;;;;;;4.93;2.10;;;;;;;16.59;64.20;101742.69;6255221;28;20227;-74
2022/10/04 17:04:10;;;;;;;3.38;2.20;;;;;;;16.52;64.77;101737.00;6239928;28;20244;-74
2022/10/04 17:07:52;;;;;;;4.55;2.45;;;;;;;16.53;64.68;101748.75;6249315;28;20259;-74
2022/10/04 17:11:32;;;;;;;4.60;2.25;;;;;;;16.45;65.09;101743.19;6259263;28;20235;-73